Hudson Bend, Texas
Current Conditions -  °F | °C
As of 4:55 PM on Friday 28 Nov 2014 (Local Time) from KRYW Reporting Station
Clear Clear  
Wind Chill: 68°   Ceiling: Unl
Heat Index: 68°   Visibility: 10mi
Dew Point: 46°   Wind: 10mph
Humidity: 45%   Direction: 200°SSW
Pressure: 30.12"   Gusts: NA
Location:  30.3763°N, 97.9464°W
Report Text: KRYW 282255Z AUTO 20009KT 10SM CLR 20/08 A3012 RMK AO2 T02010077
Loading
Personal Weather Stations






























Interactive Weather Map New forecast layout! Learn more

10-Day Weather Forecast

Advertisements
Track Severe Weather on mobile